sensor_id;sensor_type;location;lat;lon;timestamp;P1;durP1;ratioP1;P2;durP2;ratioP2
46875;SDS011;32866;50.160;14.768;2024-03-23T00:51:23;4.60;;;4.25;;
46875;SDS011;32866;50.160;14.768;2024-03-23T00:53:50;2.55;;;2.45;;
46875;SDS011;32866;50.160;14.768;2024-03-23T00:56:16;3.17;;;2.97;;
46875;SDS011;32866;50.160;14.768;2024-03-23T00:58:42;3.38;;;2.75;;
46875;SDS011;32866;50.160;14.768;2024-03-23T01:01:08;3.67;;;3.22;;
46875;SDS011;32866;50.160;14.768;2024-03-23T01:03:34;2.58;;;2.47;;
46875;SDS011;32866;50.160;14.768;2024-03-23T01:06:01;2.15;;;2.05;;
46875;SDS011;32866;50.160;14.768;2024-03-23T01:08:27;3.20;;;3.03;;
46875;SDS011;32866;50.160;14.768;2024-03-23T01:10:54;2.75;;;2.65;;
46875;SDS011;32866;50.160;14.768;2024-03-23T01:13:21;2.83;;;2.63;;
46875;SDS011;32866;50.160;14.768;2024-03-23T01:15:48;2.42;;;2.33;;
46875;SDS011;32866;50.160;14.768;2024-03-23T01:18:18;4.65;;;4.22;;
46875;SDS011;32866;50.160;14.768;2024-03-23T01:20:45;3.13;;;2.92;;
46875;SDS011;32866;50.160;14.768;2024-03-23T01:25:37;2.47;;;2.38;;
46875;SDS011;32866;50.160;14.768;2024-03-23T01:28:03;2.75;;;2.65;;
46875;SDS011;32866;50.160;14.768;2024-03-23T01:30:30;3.33;;;3.13;;
46875;SDS011;32866;50.160;14.768;2024-03-23T01:32:56;3.08;;;2.97;;
46875;SDS011;32866;50.160;14.768;2024-03-23T01:35:22;2.55;;;2.45;;
46875;SDS011;32866;50.160;14.768;2024-03-23T01:37:48;2.72;;;2.63;;
46875;SDS011;32866;50.160;14.768;2024-03-23T01:40:16;2.47;;;2.38;;
46875;SDS011;32866;50.160;14.768;2024-03-23T01:42:42;3.22;;;3.03;;
46875;SDS011;32866;50.160;14.768;2024-03-23T01:45:08;2.65;;;2.55;;
46875;SDS011;32866;50.160;14.768;2024-03-23T01:47:35;3.05;;;2.95;;
46875;SDS011;32866;50.160;14.768;2024-03-23T01:50:01;2.67;;;2.58;;
46875;SDS011;32866;50.160;14.768;2024-03-23T01:52:27;2.55;;;2.28;;
46875;SDS011;32866;50.160;14.768;2024-03-23T01:54:53;3.20;;;3.00;;
46875;SDS011;32866;50.160;14.768;2024-03-23T01:57:19;2.25;;;2.15;;
46875;SDS011;32866;50.160;14.768;2024-03-23T01:59:48;2.47;;;2.38;;
46875;SDS011;32866;50.160;14.768;2024-03-23T02:02:14;3.33;;;3.15;;
46875;SDS011;32866;50.160;14.768;2024-03-23T02:04:43;2.42;;;2.33;;
46875;SDS011;32866;50.160;14.768;2024-03-23T02:07:09;2.83;;;2.67;;
46875;SDS011;32866;50.160;14.768;2024-03-23T02:09:35;2.47;;;2.28;;
46875;SDS011;32866;50.160;14.768;2024-03-23T02:12:02;2.75;;;2.65;;
46875;SDS011;32866;50.160;14.768;2024-03-23T02:14:28;2.50;;;2.35;;
46875;SDS011;32866;50.160;14.768;2024-03-23T02:16:54;3.05;;;2.85;;
46875;SDS011;32866;50.160;14.768;2024-03-23T02:19:20;2.72;;;2.63;;
46875;SDS011;32866;50.160;14.768;2024-03-23T02:21:46;5.07;;;2.88;;
46875;SDS011;32866;50.160;14.768;2024-03-23T02:24:13;2.50;;;2.40;;
46875;SDS011;32866;50.160;14.768;2024-03-23T02:26:39;3.13;;;2.92;;
46875;SDS011;32866;50.160;14.768;2024-03-23T02:29:05;3.15;;;2.67;;
46875;SDS011;32866;50.160;14.768;2024-03-23T02:31:31;3.05;;;2.95;;
46875;SDS011;32866;50.160;14.768;2024-03-23T02:33:57;4.75;;;3.53;;
46875;SDS011;32866;50.160;14.768;2024-03-23T02:36:23;2.97;;;2.75;;
46875;SDS011;32866;50.160;14.768;2024-03-23T02:38:49;3.10;;;2.90;;
46875;SDS011;32866;50.160;14.768;2024-03-23T02:41:15;3.72;;;3.42;;
46875;SDS011;32866;50.160;14.768;2024-03-23T02:43:50;2.63;;;2.42;;
46875;SDS011;32866;50.160;14.768;2024-03-23T02:46:16;2.58;;;2.47;;
46875;SDS011;32866;50.160;14.768;2024-03-23T02:51:08;2.83;;;2.72;;
46875;SDS011;32866;50.160;14.768;2024-03-23T02:53:35;2.83;;;2.72;;
46875;SDS011;32866;50.160;14.768;2024-03-23T02:56:01;5.63;;;3.35;;
46875;SDS011;32866;50.160;14.768;2024-03-23T02:58:27;4.35;;;2.83;;
46875;SDS011;32866;50.160;14.768;2024-03-23T03:00:53;3.65;;;3.45;;
46875;SDS011;32866;50.160;14.768;2024-03-23T03:03:19;4.30;;;4.03;;
46875;SDS011;32866;50.160;14.768;2024-03-23T03:05:45;2.70;;;2.60;;
46875;SDS011;32866;50.160;14.768;2024-03-23T03:08:11;3.20;;;3.00;;
46875;SDS011;32866;50.160;14.768;2024-03-23T03:10:37;3.67;;;3.35;;
46875;SDS011;32866;50.160;14.768;2024-03-23T03:13:03;3.83;;;3.53;;
46875;SDS011;32866;50.160;14.768;2024-03-23T03:15:29;3.80;;;3.50;;
46875;SDS011;32866;50.160;14.768;2024-03-23T03:17:55;3.63;;;3.33;;
46875;SDS011;32866;50.160;14.768;2024-03-23T03:20:21;2.90;;;2.80;;
46875;SDS011;32866;50.160;14.768;2024-03-23T03:22:49;2.77;;;2.67;;
46875;SDS011;32866;50.160;14.768;2024-03-23T03:25:15;3.33;;;3.13;;
46875;SDS011;32866;50.160;14.768;2024-03-23T03:27:41;2.63;;;2.53;;
46875;SDS011;32866;50.160;14.768;2024-03-23T03:30:07;3.20;;;3.10;;
46875;SDS011;32866;50.160;14.768;2024-03-23T03:32:34;3.17;;;3.07;;
46875;SDS011;32866;50.160;14.768;2024-03-23T03:35:00;3.10;;;3.00;;
46875;SDS011;32866;50.160;14.768;2024-03-23T03:37:26;3.30;;;3.20;;
46875;SDS011;32866;50.160;14.768;2024-03-23T03:39:52;3.13;;;2.92;;
46875;SDS011;32866;50.160;14.768;2024-03-23T03:42:18;3.78;;;3.58;;
46875;SDS011;32866;50.160;14.768;2024-03-23T03:44:44;2.95;;;2.85;;
46875;SDS011;32866;50.160;14.768;2024-03-23T03:47:10;3.33;;;3.10;;
46875;SDS011;32866;50.160;14.768;2024-03-23T03:49:36;4.43;;;4.13;;
46875;SDS011;32866;50.160;14.768;2024-03-23T03:52:02;4.35;;;3.75;;
46875;SDS011;32866;50.160;14.768;2024-03-23T03:54:28;3.13;;;3.03;;
46875;SDS011;32866;50.160;14.768;2024-03-23T03:56:54;2.78;;;2.65;;
46875;SDS011;32866;50.160;14.768;2024-03-23T03:59:20;2.90;;;2.80;;
46875;SDS011;32866;50.160;14.768;2024-03-23T04:01:46;2.88;;;2.67;;
46875;SDS011;32866;50.160;14.768;2024-03-23T04:04:12;2.88;;;2.67;;
46875;SDS011;32866;50.160;14.768;2024-03-23T04:06:39;4.10;;;3.90;;
46875;SDS011;32866;50.160;14.768;2024-03-23T04:09:05;2.92;;;2.72;;
46875;SDS011;32866;50.160;14.768;2024-03-23T04:11:32;5.37;;;3.00;;
46875;SDS011;32866;50.160;14.768;2024-03-23T04:13:58;2.40;;;2.30;;
46875;SDS011;32866;50.160;14.768;2024-03-23T04:16:27;2.97;;;2.85;;
46875;SDS011;32866;50.160;14.768;2024-03-23T04:18:54;3.47;;;2.67;;
46875;SDS011;32866;50.160;14.768;2024-03-23T04:21:21;2.78;;;2.67;;
46875;SDS011;32866;50.160;14.768;2024-03-23T04:23:48;3.10;;;3.00;;
46875;SDS011;32866;50.160;14.768;2024-03-23T04:26:14;3.72;;;3.45;;
46875;SDS011;32866;50.160;14.768;2024-03-23T04:28:41;2.90;;;2.80;;
46875;SDS011;32866;50.160;14.768;2024-03-23T04:31:07;2.17;;;2.08;;
46875;SDS011;32866;50.160;14.768;2024-03-23T04:33:33;2.53;;;2.42;;
46875;SDS011;32866;50.160;14.768;2024-03-23T04:35:59;3.05;;;2.95;;
46875;SDS011;32866;50.160;14.768;2024-03-23T04:38:25;3.28;;;3.05;;
46875;SDS011;32866;50.160;14.768;2024-03-23T04:40:57;2.38;;;2.28;;
46875;SDS011;32866;50.160;14.768;2024-03-23T04:43:27;2.90;;;2.77;;
46875;SDS011;32866;50.160;14.768;2024-03-23T04:45:54;2.53;;;2.43;;
46875;SDS011;32866;50.160;14.768;2024-03-23T04:48:20;3.80;;;3.53;;
46875;SDS011;32866;50.160;14.768;2024-03-23T04:50:48;3.53;;;3.33;;
46875;SDS011;32866;50.160;14.768;2024-03-23T04:53:15;3.30;;;3.20;;
46875;SDS011;32866;50.160;14.768;2024-03-23T04:55:44;2.30;;;2.20;;
46875;SDS011;32866;50.160;14.768;2024-03-23T04:58:10;3.42;;;3.25;;
46875;SDS011;32866;50.160;14.768;2024-03-23T05:00:36;3.00;;;2.90;;
46875;SDS011;32866;50.160;14.768;2024-03-23T05:03:02;2.58;;;2.47;;
46875;SDS011;32866;50.160;14.768;2024-03-23T05:05:29;2.90;;;2.80;;
46875;SDS011;32866;50.160;14.768;2024-03-23T05:07:55;2.63;;;2.42;;
46875;SDS011;32866;50.160;14.768;2024-03-23T05:10:21;3.53;;;3.22;;
46875;SDS011;32866;50.160;14.768;2024-03-23T05:12:48;3.22;;;3.00;;
46875;SDS011;32866;50.160;14.768;2024-03-23T05:15:14;2.87;;;2.77;;
46875;SDS011;32866;50.160;14.768;2024-03-23T05:17:40;2.38;;;2.28;;
46875;SDS011;32866;50.160;14.768;2024-03-23T05:20:06;2.45;;;2.35;;
46875;SDS011;32866;50.160;14.768;2024-03-23T05:22:35;3.43;;;3.13;;
46875;SDS011;32866;50.160;14.768;2024-03-23T05:25:02;3.20;;;3.00;;
46875;SDS011;32866;50.160;14.768;2024-03-23T05:27:31;2.73;;;2.63;;
46875;SDS011;32866;50.160;14.768;2024-03-23T05:29:58;2.83;;;2.63;;
46875;SDS011;32866;50.160;14.768;2024-03-23T05:32:24;2.20;;;2.10;;
46875;SDS011;32866;50.160;14.768;2024-03-23T05:34:50;3.53;;;3.33;;
46875;SDS011;32866;50.160;14.768;2024-03-23T05:37:21;4.00;;;3.70;;
46875;SDS011;32866;50.160;14.768;2024-03-23T05:39:48;2.73;;;2.53;;
46875;SDS011;32866;50.160;14.768;2024-03-23T05:42:16;2.60;;;2.50;;
46875;SDS011;32866;50.160;14.768;2024-03-23T05:44:43;2.97;;;2.83;;
46875;SDS011;32866;50.160;14.768;2024-03-23T05:47:12;4.00;;;2.67;;
46875;SDS011;32866;50.160;14.768;2024-03-23T05:49:42;2.10;;;2.00;;
46875;SDS011;32866;50.160;14.768;2024-03-23T05:52:09;3.03;;;2.92;;
46875;SDS011;32866;50.160;14.768;2024-03-23T05:54:35;3.97;;;3.40;;
46875;SDS011;32866;50.160;14.768;2024-03-23T05:57:02;2.78;;;2.58;;
46875;SDS011;32866;50.160;14.768;2024-03-23T05:59:28;2.58;;;2.47;;
46875;SDS011;32866;50.160;14.768;2024-03-23T06:01:54;2.92;;;2.83;;
46875;SDS011;32866;50.160;14.768;2024-03-23T06:09:14;1.75;;;1.73;;
46875;SDS011;32866;50.160;14.768;2024-03-23T06:11:40;2.72;;;2.63;;
46875;SDS011;32866;50.160;14.768;2024-03-23T06:14:06;3.17;;;2.97;;
46875;SDS011;32866;50.160;14.768;2024-03-23T06:16:32;5.50;;;3.30;;
46875;SDS011;32866;50.160;14.768;2024-03-23T06:18:58;2.88;;;2.63;;
46875;SDS011;32866;50.160;14.768;2024-03-23T06:21:24;3.42;;;3.22;;
46875;SDS011;32866;50.160;14.768;2024-03-23T06:23:54;3.78;;;3.22;;
46875;SDS011;32866;50.160;14.768;2024-03-23T06:26:20;7.38;;;2.63;;
46875;SDS011;32866;50.160;14.768;2024-03-23T06:28:47;2.88;;;2.78;;
46875;SDS011;32866;50.160;14.768;2024-03-23T06:31:13;3.50;;;3.20;;
46875;SDS011;32866;50.160;14.768;2024-03-23T06:36:10;2.15;;;2.05;;
46875;SDS011;32866;50.160;14.768;2024-03-23T06:38:37;3.03;;;2.88;;
46875;SDS011;32866;50.160;14.768;2024-03-23T06:41:06;4.00;;;3.60;;
46875;SDS011;32866;50.160;14.768;2024-03-23T06:43:32;3.30;;;3.10;;
46875;SDS011;32866;50.160;14.768;2024-03-23T06:45:58;3.58;;;3.38;;
46875;SDS011;32866;50.160;14.768;2024-03-23T06:48:24;2.45;;;2.35;;
46875;SDS011;32866;50.160;14.768;2024-03-23T06:50:54;3.10;;;2.97;;
46875;SDS011;32866;50.160;14.768;2024-03-23T06:53:24;2.72;;;2.63;;
46875;SDS011;32866;50.160;14.768;2024-03-23T06:55:53;2.65;;;2.55;;
46875;SDS011;32866;50.160;14.768;2024-03-23T06:58:20;7.05;;;3.55;;
46875;SDS011;32866;50.160;14.768;2024-03-23T07:00:46;3.50;;;3.30;;
46875;SDS011;32866;50.160;14.768;2024-03-23T07:03:12;4.75;;;3.90;;
46875;SDS011;32866;50.160;14.768;2024-03-23T07:05:38;2.65;;;2.55;;
46875;SDS011;32866;50.160;14.768;2024-03-23T07:08:04;3.53;;;3.33;;
46875;SDS011;32866;50.160;14.768;2024-03-23T07:10:31;3.53;;;3.33;;
46875;SDS011;32866;50.160;14.768;2024-03-23T07:12:57;2.42;;;2.30;;
46875;SDS011;32866;50.160;14.768;2024-03-23T07:15:23;3.22;;;3.10;;
46875;SDS011;32866;50.160;14.768;2024-03-23T07:17:49;3.72;;;3.50;;
46875;SDS011;32866;50.160;14.768;2024-03-23T07:20:15;3.58;;;3.38;;
46875;SDS011;32866;50.160;14.768;2024-03-23T07:25:07;5.85;;;3.28;;
46875;SDS011;32866;50.160;14.768;2024-03-23T07:27:33;8.20;;;3.90;;
46875;SDS011;32866;50.160;14.768;2024-03-23T07:32:26;4.18;;;3.80;;
46875;SDS011;32866;50.160;14.768;2024-03-23T07:34:52;4.03;;;3.70;;
46875;SDS011;32866;50.160;14.768;2024-03-23T07:37:18;3.40;;;3.20;;
46875;SDS011;32866;50.160;14.768;2024-03-23T07:39:44;4.20;;;3.83;;
46875;SDS011;32866;50.160;14.768;2024-03-23T07:42:10;4.50;;;4.10;;
46875;SDS011;32866;50.160;14.768;2024-03-23T07:47:03;3.95;;;3.70;;
46875;SDS011;32866;50.160;14.768;2024-03-23T07:49:29;2.47;;;2.38;;
46875;SDS011;32866;50.160;14.768;2024-03-23T07:54:21;4.18;;;3.97;;
46875;SDS011;32866;50.160;14.768;2024-03-23T07:56:47;4.78;;;4.45;;
46875;SDS011;32866;50.160;14.768;2024-03-23T08:01:48;2.40;;;2.20;;
46875;SDS011;32866;50.160;14.768;2024-03-23T08:04:15;1.90;;;1.80;;
46875;SDS011;32866;50.160;14.768;2024-03-23T08:06:41;4.85;;;2.38;;
46875;SDS011;32866;50.160;14.768;2024-03-23T08:09:07;2.28;;;2.17;;
46875;SDS011;32866;50.160;14.768;2024-03-23T08:16:27;1.77;;;1.77;;
46875;SDS011;32866;50.160;14.768;2024-03-23T08:18:53;2.00;;;1.90;;
46875;SDS011;32866;50.160;14.768;2024-03-23T08:21:21;1.90;;;1.80;;
46875;SDS011;32866;50.160;14.768;2024-03-23T08:23:48;1.90;;;1.80;;
46875;SDS011;32866;50.160;14.768;2024-03-23T08:28:41;1.50;;;1.50;;
46875;SDS011;32866;50.160;14.768;2024-03-23T08:31:08;1.40;;;1.40;;
46875;SDS011;32866;50.160;14.768;2024-03-23T08:33:35;2.20;;;2.10;;
46875;SDS011;32866;50.160;14.768;2024-03-23T08:36:05;2.95;;;2.75;;
46875;SDS011;32866;50.160;14.768;2024-03-23T08:38:32;2.28;;;2.13;;
46875;SDS011;32866;50.160;14.768;2024-03-23T08:41:03;1.95;;;1.85;;
46875;SDS011;32866;50.160;14.768;2024-03-23T08:43:29;1.60;;;1.60;;
46875;SDS011;32866;50.160;14.768;2024-03-23T08:46:06;1.63;;;1.63;;
46875;SDS011;32866;50.160;14.768;2024-03-23T08:48:42;1.40;;;1.40;;
46875;SDS011;32866;50.160;14.768;2024-03-23T08:51:11;2.00;;;1.90;;
46875;SDS011;32866;50.160;14.768;2024-03-23T08:53:41;3.28;;;2.92;;
46875;SDS011;32866;50.160;14.768;2024-03-23T08:56:08;3.78;;;2.05;;
46875;SDS011;32866;50.160;14.768;2024-03-23T08:58:35;2.05;;;1.95;;
46875;SDS011;32866;50.160;14.768;2024-03-23T09:01:03;1.85;;;1.75;;
46875;SDS011;32866;50.160;14.768;2024-03-23T09:03:30;2.03;;;1.92;;
46875;SDS011;32866;50.160;14.768;2024-03-23T09:05:57;1.85;;;1.85;;
46875;SDS011;32866;50.160;14.768;2024-03-23T09:08:24;10.07;;;2.13;;
46875;SDS011;32866;50.160;14.768;2024-03-23T09:10:50;1.63;;;1.63;;
46875;SDS011;32866;50.160;14.768;2024-03-23T09:15:45;2.20;;;2.10;;
46875;SDS011;32866;50.160;14.768;2024-03-23T09:18:13;1.42;;;1.42;;
46875;SDS011;32866;50.160;14.768;2024-03-23T09:20:39;2.15;;;2.05;;
46875;SDS011;32866;50.160;14.768;2024-03-23T09:25:31;2.08;;;1.98;;
46875;SDS011;32866;50.160;14.768;2024-03-23T09:27:58;2.10;;;2.00;;
46875;SDS011;32866;50.160;14.768;2024-03-23T09:30:24;2.38;;;2.28;;
46875;SDS011;32866;50.160;14.768;2024-03-23T09:32:50;1.58;;;1.48;;
46875;SDS011;32866;50.160;14.768;2024-03-23T09:35:16;1.48;;;1.48;;
46875;SDS011;32866;50.160;14.768;2024-03-23T09:40:10;2.13;;;2.03;;
46875;SDS011;32866;50.160;14.768;2024-03-23T09:42:37;2.25;;;2.05;;
46875;SDS011;32866;50.160;14.768;2024-03-23T09:45:07;2.50;;;2.40;;
46875;SDS011;32866;50.160;14.768;2024-03-23T09:47:43;2.08;;;1.98;;
46875;SDS011;32866;50.160;14.768;2024-03-23T09:50:09;1.75;;;1.73;;
46875;SDS011;32866;50.160;14.768;2024-03-23T09:55:01;2.10;;;2.00;;
46875;SDS011;32866;50.160;14.768;2024-03-23T09:57:29;2.65;;;1.88;;
46875;SDS011;32866;50.160;14.768;2024-03-23T09:59:55;2.55;;;2.45;;
46875;SDS011;32866;50.160;14.768;2024-03-23T10:02:23;1.58;;;1.58;;
46875;SDS011;32866;50.160;14.768;2024-03-23T10:04:50;2.15;;;2.05;;
46875;SDS011;32866;50.160;14.768;2024-03-23T10:07:18;3.60;;;2.85;;
46875;SDS011;32866;50.160;14.768;2024-03-23T10:09:45;2.08;;;1.98;;
46875;SDS011;32866;50.160;14.768;2024-03-23T10:12:13;1.70;;;1.70;;
46875;SDS011;32866;50.160;14.768;2024-03-23T10:14:41;2.20;;;2.00;;
46875;SDS011;32866;50.160;14.768;2024-03-23T10:17:17;2.00;;;1.90;;
46875;SDS011;32866;50.160;14.768;2024-03-23T10:19:45;2.30;;;2.20;;
46875;SDS011;32866;50.160;14.768;2024-03-23T10:22:13;2.53;;;2.42;;
46875;SDS011;32866;50.160;14.768;2024-03-23T10:24:42;2.50;;;2.40;;
46875;SDS011;32866;50.160;14.768;2024-03-23T10:27:08;2.75;;;2.65;;
46875;SDS011;32866;50.160;14.768;2024-03-23T10:32:10;1.90;;;1.90;;
46875;SDS011;32866;50.160;14.768;2024-03-23T10:34:37;2.55;;;2.45;;
46875;SDS011;32866;50.160;14.768;2024-03-23T10:37:03;2.35;;;2.25;;
46875;SDS011;32866;50.160;14.768;2024-03-23T10:39:31;2.55;;;2.45;;
46875;SDS011;32866;50.160;14.768;2024-03-23T10:42:00;2.30;;;2.20;;
46875;SDS011;32866;50.160;14.768;2024-03-23T10:44:27;2.40;;;2.30;;
46875;SDS011;32866;50.160;14.768;2024-03-23T10:47:00;2.40;;;2.30;;
46875;SDS011;32866;50.160;14.768;2024-03-23T10:49:28;2.67;;;2.58;;
46875;SDS011;32866;50.160;14.768;2024-03-23T10:51:56;2.40;;;2.30;;
46875;SDS011;32866;50.160;14.768;2024-03-23T10:54:24;2.97;;;2.85;;
46875;SDS011;32866;50.160;14.768;2024-03-23T10:56:51;2.60;;;2.50;;
46875;SDS011;32866;50.160;14.768;2024-03-23T10:59:21;2.60;;;2.40;;
46875;SDS011;32866;50.160;14.768;2024-03-23T11:01:57;3.15;;;3.00;;
46875;SDS011;32866;50.160;14.768;2024-03-23T11:10:02;2.33;;;2.22;;
46875;SDS011;32866;50.160;14.768;2024-03-23T11:12:53;2.58;;;2.47;;
46875;SDS011;32866;50.160;14.768;2024-03-23T11:15:19;2.58;;;2.38;;
46875;SDS011;32866;50.160;14.768;2024-03-23T11:20:33;2.38;;;2.28;;
46875;SDS011;32866;50.160;14.768;2024-03-23T11:23:00;2.30;;;2.20;;
46875;SDS011;32866;50.160;14.768;2024-03-23T11:25:27;1.80;;;1.80;;
46875;SDS011;32866;50.160;14.768;2024-03-23T11:27:57;2.25;;;2.15;;
46875;SDS011;32866;50.160;14.768;2024-03-23T11:30:34;1.98;;;1.90;;
46875;SDS011;32866;50.160;14.768;2024-03-23T11:33:00;1.90;;;1.85;;
46875;SDS011;32866;50.160;14.768;2024-03-23T11:38:06;2.45;;;2.35;;
46875;SDS011;32866;50.160;14.768;2024-03-23T11:40:35;2.40;;;2.30;;
46875;SDS011;32866;50.160;14.768;2024-03-23T11:43:05;1.95;;;1.80;;
46875;SDS011;32866;50.160;14.768;2024-03-23T11:45:36;2.22;;;2.13;;
46875;SDS011;32866;50.160;14.768;2024-03-23T11:50:33;1.70;;;1.70;;
46875;SDS011;32866;50.160;14.768;2024-03-23T11:53:09;2.03;;;1.98;;
46875;SDS011;32866;50.160;14.768;2024-03-23T11:55:46;1.73;;;1.73;;
46875;SDS011;32866;50.160;14.768;2024-03-23T11:58:20;2.00;;;1.90;;
46875;SDS011;32866;50.160;14.768;2024-03-23T12:00:54;2.47;;;2.38;;
46875;SDS011;32866;50.160;14.768;2024-03-23T12:03:20;2.00;;;1.90;;
46875;SDS011;32866;50.160;14.768;2024-03-23T12:06:02;2.33;;;2.22;;
46875;SDS011;32866;50.160;14.768;2024-03-23T12:08:30;2.10;;;2.00;;
46875;SDS011;32866;50.160;14.768;2024-03-23T12:11:06;2.00;;;1.95;;
46875;SDS011;32866;50.160;14.768;2024-03-23T12:13:40;2.10;;;2.00;;
46875;SDS011;32866;50.160;14.768;2024-03-23T12:18:35;2.30;;;2.20;;
46875;SDS011;32866;50.160;14.768;2024-03-23T12:21:03;2.13;;;2.05;;
46875;SDS011;32866;50.160;14.768;2024-03-23T12:23:29;2.70;;;2.60;;
46875;SDS011;32866;50.160;14.768;2024-03-23T12:25:56;23.13;;;2.08;;
46875;SDS011;32866;50.160;14.768;2024-03-23T12:28:22;2.55;;;2.35;;
46875;SDS011;32866;50.160;14.768;2024-03-23T12:30:48;1.73;;;1.73;;
46875;SDS011;32866;50.160;14.768;2024-03-23T12:33:14;2.05;;;1.95;;
46875;SDS011;32866;50.160;14.768;2024-03-23T12:35:40;1.75;;;1.65;;
46875;SDS011;32866;50.160;14.768;2024-03-23T12:38:06;1.88;;;1.77;;
46875;SDS011;32866;50.160;14.768;2024-03-23T12:40:32;2.42;;;2.22;;
46875;SDS011;32866;50.160;14.768;2024-03-23T12:42:58;1.92;;;1.88;;
46875;SDS011;32866;50.160;14.768;2024-03-23T12:45:24;1.63;;;1.63;;
46875;SDS011;32866;50.160;14.768;2024-03-23T12:47:50;1.60;;;1.60;;
46875;SDS011;32866;50.160;14.768;2024-03-23T12:51:55;1.77;;;1.77;;
46875;SDS011;32866;50.160;14.768;2024-03-23T12:54:40;2.40;;;2.30;;
46875;SDS011;32866;50.160;14.768;2024-03-23T12:59:08;1.80;;;1.80;;
46875;SDS011;32866;50.160;14.768;2024-03-23T13:01:53;1.60;;;1.60;;
46875;SDS011;32866;50.160;14.768;2024-03-23T13:06:17;1.70;;;1.70;;
46875;SDS011;32866;50.160;14.768;2024-03-23T13:08:47;1.70;;;1.70;;
46875;SDS011;32866;50.160;14.768;2024-03-23T13:11:15;1.80;;;1.80;;
46875;SDS011;32866;50.160;14.768;2024-03-23T13:16:07;1.90;;;1.90;;
46875;SDS011;32866;50.160;14.768;2024-03-23T13:18:33;2.00;;;1.90;;
46875;SDS011;32866;50.160;14.768;2024-03-23T13:21:05;1.77;;;1.77;;
46875;SDS011;32866;50.160;14.768;2024-03-23T13:23:31;1.70;;;1.70;;
46875;SDS011;32866;50.160;14.768;2024-03-23T13:25:58;1.90;;;1.90;;
46875;SDS011;32866;50.160;14.768;2024-03-23T13:28:24;1.90;;;1.80;;
46875;SDS011;32866;50.160;14.768;2024-03-23T13:30:53;1.75;;;1.75;;
46875;SDS011;32866;50.160;14.768;2024-03-23T13:33:20;2.03;;;1.95;;
46875;SDS011;32866;50.160;14.768;2024-03-23T13:38:16;1.80;;;1.80;;
46875;SDS011;32866;50.160;14.768;2024-03-23T13:40:58;1.77;;;1.77;;
46875;SDS011;32866;50.160;14.768;2024-03-23T13:43:26;1.60;;;1.60;;
46875;SDS011;32866;50.160;14.768;2024-03-23T13:45:57;1.75;;;1.75;;
46875;SDS011;32866;50.160;14.768;2024-03-23T13:48:24;1.60;;;1.60;;
46875;SDS011;32866;50.160;14.768;2024-03-23T13:51:00;1.50;;;1.50;;
46875;SDS011;32866;50.160;14.768;2024-03-23T13:53:28;1.55;;;1.55;;
46875;SDS011;32866;50.160;14.768;2024-03-23T13:55:54;1.55;;;1.55;;
46875;SDS011;32866;50.160;14.768;2024-03-23T13:58:20;1.63;;;1.63;;
46875;SDS011;32866;50.160;14.768;2024-03-23T14:00:47;1.63;;;1.63;;
46875;SDS011;32866;50.160;14.768;2024-03-23T14:03:23;1.90;;;1.80;;
46875;SDS011;32866;50.160;14.768;2024-03-23T14:05:49;1.50;;;1.50;;
46875;SDS011;32866;50.160;14.768;2024-03-23T14:10:41;1.50;;;1.50;;
46875;SDS011;32866;50.160;14.768;2024-03-23T14:13:10;1.52;;;1.52;;
46875;SDS011;32866;50.160;14.768;2024-03-23T14:15:36;1.70;;;1.70;;
46875;SDS011;32866;50.160;14.768;2024-03-23T14:18:02;1.50;;;1.50;;
46875;SDS011;32866;50.160;14.768;2024-03-23T14:20:29;1.70;;;1.70;;
46875;SDS011;32866;50.160;14.768;2024-03-23T14:22:55;1.60;;;1.60;;
46875;SDS011;32866;50.160;14.768;2024-03-23T14:25:21;1.75;;;1.75;;
46875;SDS011;32866;50.160;14.768;2024-03-23T14:27:52;1.70;;;1.70;;
46875;SDS011;32866;50.160;14.768;2024-03-23T14:30:18;1.92;;;1.92;;
46875;SDS011;32866;50.160;14.768;2024-03-23T14:32:44;1.50;;;1.50;;
46875;SDS011;32866;50.160;14.768;2024-03-23T14:35:10;1.90;;;1.90;;
46875;SDS011;32866;50.160;14.768;2024-03-23T14:37:37;1.80;;;1.80;;
46875;SDS011;32866;50.160;14.768;2024-03-23T14:42:30;1.70;;;1.70;;
46875;SDS011;32866;50.160;14.768;2024-03-23T14:44:59;1.80;;;1.80;;
46875;SDS011;32866;50.160;14.768;2024-03-23T14:47:25;1.70;;;1.70;;
46875;SDS011;32866;50.160;14.768;2024-03-23T14:49:51;1.70;;;1.70;;
46875;SDS011;32866;50.160;14.768;2024-03-23T14:54:44;2.00;;;2.00;;
46875;SDS011;32866;50.160;14.768;2024-03-23T14:57:10;2.05;;;2.00;;
46875;SDS011;32866;50.160;14.768;2024-03-23T15:02:06;1.67;;;1.67;;
46875;SDS011;32866;50.160;14.768;2024-03-23T15:04:32;2.13;;;2.03;;
46875;SDS011;32866;50.160;14.768;2024-03-23T15:06:59;1.60;;;1.60;;
46875;SDS011;32866;50.160;14.768;2024-03-23T15:09:25;2.30;;;2.20;;
46875;SDS011;32866;50.160;14.768;2024-03-23T15:11:51;1.88;;;1.85;;
46875;SDS011;32866;50.160;14.768;2024-03-23T15:14:17;2.20;;;2.10;;
46875;SDS011;32866;50.160;14.768;2024-03-23T15:16:43;2.03;;;1.95;;
46875;SDS011;32866;50.160;14.768;2024-03-23T15:19:09;1.90;;;1.90;;
46875;SDS011;32866;50.160;14.768;2024-03-23T15:21:35;2.80;;;2.60;;
46875;SDS011;32866;50.160;14.768;2024-03-23T15:24:01;1.85;;;1.85;;
46875;SDS011;32866;50.160;14.768;2024-03-23T15:26:27;2.30;;;2.20;;
46875;SDS011;32866;50.160;14.768;2024-03-23T15:28:53;2.03;;;1.92;;
46875;SDS011;32866;50.160;14.768;2024-03-23T15:31:22;1.80;;;1.80;;
46875;SDS011;32866;50.160;14.768;2024-03-23T15:36:14;1.90;;;1.90;;
46875;SDS011;32866;50.160;14.768;2024-03-23T15:38:40;1.60;;;1.60;;
46875;SDS011;32866;50.160;14.768;2024-03-23T15:41:06;1.83;;;1.83;;
46875;SDS011;32866;50.160;14.768;2024-03-23T15:43:33;2.20;;;2.10;;
46875;SDS011;32866;50.160;14.768;2024-03-23T15:45:59;1.90;;;1.90;;
46875;SDS011;32866;50.160;14.768;2024-03-23T15:48:26;2.00;;;2.00;;
46875;SDS011;32866;50.160;14.768;2024-03-23T15:50:59;2.30;;;2.20;;
46875;SDS011;32866;50.160;14.768;2024-03-23T15:53:28;2.30;;;2.20;;
46875;SDS011;32866;50.160;14.768;2024-03-23T15:55:57;2.13;;;2.03;;
46875;SDS011;32866;50.160;14.768;2024-03-23T15:58:28;2.13;;;2.03;;
46875;SDS011;32866;50.160;14.768;2024-03-23T16:00:58;2.20;;;2.10;;
46875;SDS011;32866;50.160;14.768;2024-03-23T16:03:25;2.00;;;2.00;;
46875;SDS011;32866;50.160;14.768;2024-03-23T16:05:58;2.20;;;2.10;;
46875;SDS011;32866;50.160;14.768;2024-03-23T16:08:24;2.13;;;2.03;;
46875;SDS011;32866;50.160;14.768;2024-03-23T16:10:51;2.10;;;2.00;;
46875;SDS011;32866;50.160;14.768;2024-03-23T16:13:17;3.57;;;2.43;;
46875;SDS011;32866;50.160;14.768;2024-03-23T16:15:44;2.37;;;2.27;;
46875;SDS011;32866;50.160;14.768;2024-03-23T16:18:33;1.80;;;1.80;;
46875;SDS011;32866;50.160;14.768;2024-03-23T16:21:00;2.27;;;2.17;;
46875;SDS011;32866;50.160;14.768;2024-03-23T16:23:28;2.10;;;2.00;;
46875;SDS011;32866;50.160;14.768;2024-03-23T16:25:54;2.47;;;2.38;;
46875;SDS011;32866;50.160;14.768;2024-03-23T16:28:22;2.33;;;2.23;;
46875;SDS011;32866;50.160;14.768;2024-03-23T16:33:28;2.40;;;2.30;;
46875;SDS011;32866;50.160;14.768;2024-03-23T16:38:29;2.57;;;2.47;;
46875;SDS011;32866;50.160;14.768;2024-03-23T16:40:56;2.80;;;2.70;;
46875;SDS011;32866;50.160;14.768;2024-03-23T16:43:23;2.70;;;2.50;;
46875;SDS011;32866;50.160;14.768;2024-03-23T16:45:57;3.00;;;2.80;;
46875;SDS011;32866;50.160;14.768;2024-03-23T16:48:24;2.43;;;2.33;;
46875;SDS011;32866;50.160;14.768;2024-03-23T16:50:51;2.40;;;2.30;;
46875;SDS011;32866;50.160;14.768;2024-03-23T16:53:18;2.37;;;2.27;;